Terminal Aerodrome Forecast
Issued by NWS Twin Cities, MN

Home | Current Version | Previous Version | Graphics & Text | Print | Product List | Glossary On
Versions: 1 2 3 4 5 6 7 8 9 10 11 12 13 14 15 16 17 18 19 20 21 22 23 24 25 26 27
455
FTUS43 KMPX 231937 AAA
TAFMSP
TAF AMD
KMSP 231937Z 2320/2424 15013G19KT P6SM OVC030
     FM232100 14011KT P6SM VCSH OVC015
     FM240100 13006KT P6SM VCSH OVC010
     FM240500 09004KT 2SM SHRA BR OVC008
     FM240900 04005KT 3SM -RA BR OVC008
     FM241200 36010KT 4SM -SHRA BR OVC008
     FM241800 01012KT 4SM BR VCSH OVC012=

USA.gov is the U.S. government's official web portal to all federal, state and local government web resources and services.